Time;durP1;ratioP1;P1;durP2;ratioP2;P2;SDS_P1;SDS_P2;PMS_P1;PMS_P2;Temp;Humidity;BMP_temperature;BMP_pressure;BME280_temperature;BME280_humidity;BME280_pressure;Samples;Min_cycle;Max_cycle;Signal;HPM_P1;HPM_P2
2022/09/24 00:01:53;;;;;;;10.70;8.50;;;;;;;4.19;100.00;97594.36;110284;1245;68681;-72
2022/09/24 00:04:26;;;;;;;12.20;9.30;;;;;;;4.21;100.00;97591.55;110543;1244;69579;-71
2022/09/24 00:06:54;;;;;;;11.40;7.90;;;;;;;4.24;100.00;97593.13;110567;1245;59732;-71
2022/09/24 00:09:22;;;;;;;14.20;9.50;;;;;;;4.26;100.00;97591.16;110261;1245;59628;-70
2022/09/24 00:11:53;;;;;;;13.50;9.30;;;;;;;4.29;100.00;97589.46;110349;1244;70567;-70
2022/09/24 00:14:22;;;;;;;15.50;9.80;;;;;;;4.31;100.00;97589.56;110146;1247;68935;-69
2022/09/24 00:16:50;;;;;;;14.10;9.90;;;;;;;4.30;100.00;97586.15;110199;1245;69293;-69
2022/09/24 00:19:18;;;;;;;13.00;9.30;;;;;;;4.27;100.00;97591.79;110072;1248;59728;-69
2022/09/24 00:21:46;;;;;;;16.50;11.20;;;;;;;4.23;100.00;97589.72;110122;1247;60081;-71
2022/09/24 00:27:04;;;;;;;11.90;8.50;;;;;;;4.14;100.00;97590.50;110460;1245;68548;-70
2022/09/24 00:29:34;;;;;;;12.80;8.40;;;;;;;4.10;100.00;97588.38;110303;1245;68505;-71
2022/09/24 00:32:04;;;;;;;16.70;11.50;;;;;;;4.09;100.00;97584.13;110076;1246;59745;-69
2022/09/24 00:34:32;;;;;;;16.70;9.60;;;;;;;4.10;100.00;97579.79;110238;1247;59757;-71
2022/09/24 00:37:00;;;;;;;13.20;9.50;;;;;;;4.10;100.00;97582.71;110516;1242;70816;-69
2022/09/24 00:39:28;;;;;;;12.60;9.70;;;;;;;4.09;100.00;97582.23;110267;1245;69484;-69
2022/09/24 00:41:56;;;;;;;10.70;7.60;;;;;;;4.08;100.00;97579.02;110257;1245;68313;-68
2022/09/24 00:44:53;;;;;;;8.90;6.10;;;;;;;4.06;100.00;97576.98;110302;1244;59706;-71
2022/09/24 00:47:30;;;;;;;13.30;7.60;;;;;;;4.04;100.00;97567.63;110255;1248;59665;-70
2022/09/24 00:50:15;;;;;;;9.80;8.20;;;;;;;4.01;100.00;97564.13;110178;1246;71555;-70
2022/09/24 00:52:55;;;;;;;11.30;7.90;;;;;;;3.97;100.00;97567.23;110157;1246;68239;-70
2022/09/24 00:55:24;;;;;;;13.60;9.60;;;;;;;3.95;100.00;97562.70;110552;1245;69322;-69
2022/09/24 00:58:00;;;;;;;12.60;8.70;;;;;;;3.92;100.00;97557.82;110406;1245;59754;-69
2022/09/24 01:00:30;;;;;;;12.40;8.80;;;;;;;3.88;100.00;97557.28;110456;1245;59698;-69
2022/09/24 01:03:12;;;;;;;10.40;8.20;;;;;;;3.87;100.00;97554.93;110437;1244;70590;-70
2022/09/24 01:05:40;;;;;;;10.90;7.40;;;;;;;3.84;100.00;97552.31;110533;1245;69246;-70
2022/09/24 01:08:15;;;;;;;11.10;8.00;;;;;;;3.82;100.00;97549.93;110337;1244;68529;-68
2022/09/24 01:11:22;;;;;;;10.60;7.30;;;;;;;3.83;100.00;97547.49;110192;1245;59712;-70
2022/09/24 01:14:10;;;;;;;9.20;6.60;;;;;;;3.83;100.00;97548.54;110196;1245;59672;-69
2022/09/24 01:17:07;;;;;;;10.50;7.40;;;;;;;3.82;100.00;97548.93;110205;1245;71640;-70
2022/09/24 01:19:53;;;;;;;11.30;8.60;;;;;;;3.84;100.00;97548.34;110090;1247;68716;-68
2022/09/24 01:22:25;;;;;;;14.70;10.30;;;;;;;3.87;100.00;97546.48;110104;1245;69325;-70
2022/09/24 01:25:00;;;;;;;18.10;11.50;;;;;;;3.88;100.00;97542.45;110317;1246;59738;-68
2022/09/24 01:27:51;;;;;;;15.10;10.20;;;;;;;3.87;100.00;97544.73;110257;1247;60113;-70
2022/09/24 01:30:19;;;;;;;11.00;8.20;;;;;;;3.85;100.00;97544.15;110241;1245;71380;-71
2022/09/24 01:32:53;;;;;;;13.00;10.10;;;;;;;3.84;100.00;97543.34;110622;1245;69385;-70
2022/09/24 01:35:26;;;;;;;11.10;7.70;;;;;;;3.85;100.00;97548.84;110217;1245;67482;-72
2022/09/24 01:37:59;;;;;;;13.70;7.20;;;;;;;3.86;100.00;97550.15;110242;1245;60039;-69
2022/09/24 01:40:30;;;;;;;12.00;8.00;;;;;;;3.88;100.00;97548.16;110143;1247;59681;-70
2022/09/24 01:43:01;;;;;;;;;;;;;;;3.90;100.00;97548.24;110339;1245;71626;-69
2022/09/24 01:45:32;;;;;;;9.50;5.40;;;;;;;3.93;100.00;97547.59;110276;1245;69312;-69
2022/09/24 01:48:00;;;;;;;;;;;;;;;3.97;100.00;97548.09;110387;1244;69401;-70
2022/09/24 01:50:34;;;;;;;15.00;10.40;;;;;;;3.99;100.00;97552.15;110254;1245;59742;-70
2022/09/24 01:53:28;;;;;;;15.60;11.40;;;;;;;3.97;100.00;97553.79;110146;1247;60138;-70
2022/09/24 01:56:06;;;;;;;13.30;9.30;;;;;;;3.94;100.00;97552.55;110175;1247;70670;-71
2022/09/24 01:58:44;;;;;;;12.00;8.50;;;;;;;3.92;100.00;97554.04;110158;1248;68539;-70
2022/09/24 02:01:18;;;;;;;11.40;9.00;;;;;;;3.90;100.00;97556.52;110473;1245;68622;-70
2022/09/24 02:03:55;;;;;;;11.30;8.10;;;;;;;3.90;100.00;97556.88;110393;1245;59681;-72
2022/09/24 02:06:32;;;;;;;10.40;7.40;;;;;;;3.91;100.00;97559.76;110663;1245;59738;-70
2022/09/24 02:09:00;;;;;;;13.90;9.40;;;;;;;3.94;100.00;97561.84;110297;1245;71398;-71
2022/09/24 02:11:32;;;;;;;12.00;8.40;;;;;;;3.98;100.00;97563.23;110262;1245;68558;-71
2022/09/24 02:14:13;;;;;;;10.80;7.00;;;;;;;4.03;100.00;97563.52;110319;1247;69384;-70
2022/09/24 02:16:51;;;;;;;15.30;9.70;;;;;;;4.08;100.00;97563.13;110283;1247;59631;-71
2022/09/24 02:19:26;;;;;;;12.70;8.50;;;;;;;4.12;100.00;97562.45;110140;1245;59742;-69
2022/09/24 02:21:54;;;;;;;11.60;8.60;;;;;;;4.16;100.00;97563.31;110303;1245;70733;-70
2022/09/24 02:24:44;;;;;;;8.90;5.70;;;;;;;4.18;100.00;97565.61;110365;1245;68550;-71
2022/09/24 02:27:13;;;;;;;14.00;9.60;;;;;;;4.22;100.00;97566.34;110215;1247;68564;-70
2022/09/24 02:29:43;;;;;;;11.60;8.50;;;;;;;4.24;100.00;97567.23;110123;1248;59688;-70
2022/09/24 02:32:17;;;;;;;12.20;8.20;;;;;;;4.26;100.00;97565.59;110345;1245;59615;-70
2022/09/24 02:34:51;;;;;;;13.10;8.80;;;;;;;4.29;100.00;97563.39;110412;1245;71804;-70
2022/09/24 02:37:23;;;;;;;12.20;8.80;;;;;;;4.33;100.00;97558.41;110315;1245;69492;-70
2022/09/24 02:39:51;;;;;;;12.90;9.30;;;;;;;4.37;100.00;97557.20;110385;1245;68673;-70
2022/09/24 02:42:21;;;;;;;13.40;9.40;;;;;;;4.41;100.00;97558.56;110149;1245;59709;-70
2022/09/24 02:44:51;;;;;;;12.70;9.70;;;;;;;4.43;100.00;97550.15;110383;1245;59661;-71
2022/09/24 02:47:19;;;;;;;14.40;9.80;;;;;;;4.44;100.00;97547.20;110351;1247;71529;-70
2022/09/24 02:49:47;;;;;;;12.70;8.40;;;;;;;4.41;100.00;97546.11;110132;1247;68778;-69
2022/09/24 02:52:15;;;;;;;10.50;6.30;;;;;;;4.37;100.00;97547.36;110362;1245;68649;-71
2022/09/24 02:54:43;;;;;;;10.20;7.50;;;;;;;4.32;100.00;97544.44;110188;1247;59750;-71
2022/09/24 02:57:13;;;;;;;11.60;7.90;;;;;;;4.27;100.00;97542.45;110554;1245;59655;-68
2022/09/24 02:59:42;;;;;;;10.20;6.20;;;;;;;4.22;100.00;97543.36;110245;1247;71530;-69
2022/09/24 03:02:10;;;;;;;11.00;7.70;;;;;;;4.18;100.00;97546.84;110159;1247;68879;-69
2022/09/24 03:04:39;;;;;;;10.80;8.00;;;;;;;4.14;100.00;97550.64;110416;1246;69341;-70
2022/09/24 03:07:10;;;;;;;9.10;6.80;;;;;;;4.08;100.00;97556.55;110157;1248;59776;-68
2022/09/24 03:09:39;;;;;;;9.70;7.30;;;;;;;4.04;100.00;97557.25;110386;1247;59647;-68
2022/09/24 03:12:08;;;;;;;;;;;;;;;4.01;100.00;97556.19;110416;1245;70723;-70
2022/09/24 03:14:38;;;;;;;9.80;7.20;;;;;;;3.98;100.00;97556.66;110339;1247;68581;-70
2022/09/24 03:17:05;;;;;;;10.60;6.90;;;;;;;3.98;100.00;97557.20;110319;1245;68600;-71
2022/09/24 03:19:34;;;;;;;8.70;6.70;;;;;;;3.99;100.00;97562.47;110495;1247;59644;-70
2022/09/24 03:22:02;;;;;;;11.10;7.40;;;;;;;4.00;100.00;97562.13;110628;1245;59717;-70
2022/09/24 03:24:30;;;;;;;10.60;6.50;;;;;;;4.00;100.00;97564.02;110222;1248;70847;-71
2022/09/24 03:26:59;;;;;;;10.30;6.60;;;;;;;3.98;100.00;97565.13;110336;1245;69533;-70
2022/09/24 03:32:15;;;;;;;10.70;7.40;;;;;;;3.95;100.00;97571.98;110103;1247;59717;-70
2022/09/24 03:34:43;;;;;;;10.70;7.10;;;;;;;3.92;99.93;97572.27;110263;1247;59719;-71
2022/09/24 03:37:11;;;;;;;12.30;8.50;;;;;;;3.91;99.56;97571.14;110566;1245;71512;-71
2022/09/24 03:39:39;;;;;;;12.80;8.80;;;;;;;3.90;99.92;97572.73;110427;1247;68452;-69
2022/09/24 03:42:08;;;;;;;13.30;8.80;;;;;;;3.90;99.13;97571.02;110125;1247;69298;-68
2022/09/24 03:44:36;;;;;;;16.10;11.30;;;;;;;3.90;98.99;97573.91;110212;1247;59964;-69
2022/09/24 03:47:04;;;;;;;12.10;8.60;;;;;;;3.92;98.94;97571.26;110264;1247;59752;-71
2022/09/24 03:49:32;;;;;;;21.50;14.90;;;;;;;3.94;98.06;97573.44;110338;1245;71557;-71
2022/09/24 03:51:59;;;;;;;21.70;14.60;;;;;;;3.92;98.73;97572.65;110371;1245;69438;-72
2022/09/24 03:54:27;;;;;;;17.20;11.50;;;;;;;3.92;99.59;97573.34;110298;1247;70023;-69
2022/09/24 03:56:55;;;;;;;23.80;15.30;;;;;;;3.90;100.00;97578.25;110353;1247;59679;-69
2022/09/24 03:59:23;;;;;;;23.40;14.60;;;;;;;3.90;100.00;97579.27;110253;1247;60120;-68
2022/09/24 04:01:51;;;;;;;20.80;13.90;;;;;;;3.91;100.00;97579.58;110334;1245;70651;-69
2022/09/24 04:04:19;;;;;;;16.20;10.30;;;;;;;3.93;100.00;97584.66;110343;1247;69510;-69
2022/09/24 04:06:47;;;;;;;16.50;11.90;;;;;;;3.96;100.00;97585.91;110287;1247;69372;-69
2022/09/24 04:09:15;;;;;;;16.60;11.00;;;;;;;3.97;100.00;97589.29;110232;1247;59631;-70
2022/09/24 04:11:43;;;;;;;16.50;12.20;;;;;;;3.98;100.00;97592.20;110427;1245;59744;-69
2022/09/24 04:14:11;;;;;;;13.90;10.20;;;;;;;4.00;100.00;97595.08;110300;1247;71496;-69
2022/09/24 04:16:39;;;;;;;12.30;9.00;;;;;;;4.01;100.00;97600.67;110248;1247;69358;-70
2022/09/24 04:19:07;;;;;;;12.30;8.70;;;;;;;4.04;100.00;97599.70;110230;1247;69420;-70
2022/09/24 04:21:34;;;;;;;10.60;7.40;;;;;;;4.07;100.00;97601.46;110236;1247;59735;-69
2022/09/24 04:24:02;;;;;;;12.50;9.00;;;;;;;4.10;100.00;97600.29;110440;1247;59701;-70
2022/09/24 04:26:30;;;;;;;13.80;10.00;;;;;;;4.14;100.00;97600.13;110421;1247;69677;-70
2022/09/24 04:28:59;;;;;;;12.70;9.20;;;;;;;4.17;100.00;97601.56;110263;1246;69041;-71
2022/09/24 04:31:27;;;;;;;13.60;9.70;;;;;;;4.22;100.00;97601.17;110321;1247;68603;-69
2022/09/24 04:33:55;;;;;;;14.40;10.30;;;;;;;4.26;100.00;97605.30;110443;1247;59738;-71
2022/09/24 04:36:23;;;;;;;14.40;10.60;;;;;;;4.31;100.00;97602.30;110275;1247;59624;-70
2022/09/24 04:38:51;;;;;;;22.80;14.80;;;;;;;4.37;100.00;97600.15;110360;1247;71518;-69
2022/09/24 04:41:19;;;;;;;23.90;14.40;;;;;;;4.43;100.00;97601.60;110343;1246;68826;-69
2022/09/24 04:43:47;;;;;;;19.90;13.50;;;;;;;4.48;100.00;97602.94;110137;1248;69420;-70
2022/09/24 04:46:17;;;;;;;17.10;11.50;;;;;;;4.52;100.00;97606.52;110101;1248;59694;-69
2022/09/24 04:48:44;;;;;;;19.30;12.20;;;;;;;4.56;100.00;97609.61;110273;1247;59743;-69
2022/09/24 04:51:12;;;;;;;14.80;10.80;;;;;;;4.61;100.00;97608.71;110376;1247;71640;-68
2022/09/24 04:53:40;;;;;;;18.70;12.70;;;;;;;4.65;100.00;97613.02;110276;1246;69500;-70
2022/09/24 04:56:10;;;;;;;15.40;11.50;;;;;;;4.69;100.00;97614.07;110531;1246;68575;-69
2022/09/24 04:58:38;;;;;;;17.50;12.50;;;;;;;4.71;100.00;97612.39;110607;1247;59716;-70
2022/09/24 05:01:06;;;;;;;16.90;11.50;;;;;;;4.75;100.00;97613.27;110418;1247;59744;-70
2022/09/24 05:03:34;;;;;;;16.30;12.70;;;;;;;4.79;100.00;97616.33;110257;1247;72400;-69
2022/09/24 05:06:01;;;;;;;14.80;9.70;;;;;;;4.88;100.00;97617.48;110354;1247;69604;-68
2022/09/24 05:08:29;;;;;;;14.50;10.50;;;;;;;4.97;100.00;97619.80;110280;1245;69375;-69
2022/09/24 05:10:57;;;;;;;21.60;17.80;;;;;;;5.04;99.82;97619.13;110089;1247;59608;-69
2022/09/24 05:13:24;;;;;;;20.70;17.60;;;;;;;5.08;99.97;97623.47;110230;1247;58648;-70
2022/09/24 05:15:52;;;;;;;26.80;19.70;;;;;;;5.15;99.62;97627.12;110502;1246;70638;-70
2022/09/24 05:18:19;;;;;;;20.00;14.80;;;;;;;5.22;99.62;97627.98;110255;1245;68604;-70
2022/09/24 05:20:46;;;;;;;23.70;18.40;;;;;;;5.33;99.61;97629.02;110093;1247;68586;-70
2022/09/24 05:23:14;;;;;;;26.70;18.60;;;;;;;5.44;99.52;97633.64;110313;1247;59700;-69
2022/09/24 05:28:27;;;;;;;27.80;20.00;;;;;;;5.64;99.61;97640.11;110285;1247;71803;-68
2022/09/24 05:30:59;;;;;;;21.10;17.00;;;;;;;5.73;100.00;97639.16;110343;1247;68540;-70
2022/09/24 05:33:26;;;;;;;19.70;15.50;;;;;;;5.82;100.00;97644.76;110474;1245;68871;-69
2022/09/24 05:35:54;;;;;;;21.50;13.30;;;;;;;5.94;100.00;97645.20;110271;1247;60127;-69
2022/09/24 05:38:22;;;;;;;15.90;11.20;;;;;;;6.08;100.00;97644.33;109759;1248;588976;-69
2022/09/24 05:40:50;;;;;;;17.90;11.90;;;;;;;6.22;100.00;97645.73;110451;1247;70756;-70
2022/09/24 05:43:18;;;;;;;9.90;7.70;;;;;;;6.34;99.60;97647.69;110471;1245;68778;-67
2022/09/24 05:45:48;;;;;;;11.30;8.20;;;;;;;6.46;98.96;97650.00;110580;1247;69433;-68
2022/09/24 05:48:16;;;;;;;8.00;6.10;;;;;;;6.55;98.64;97650.20;110348;1246;59654;-68
2022/09/24 05:50:43;;;;;;;11.60;8.20;;;;;;;6.65;98.24;97653.50;110476;1246;59702;-65
2022/09/24 05:53:11;;;;;;;9.20;6.20;;;;;;;6.74;97.77;97655.59;110269;1245;70987;-68
2022/09/24 05:55:39;;;;;;;8.40;6.40;;;;;;;6.84;97.29;97651.95;110470;1246;68598;-69
2022/09/24 05:58:09;;;;;;;8.00;6.50;;;;;;;7.01;97.57;97652.02;110448;1245;69462;-69
2022/09/24 06:00:36;;;;;;;8.80;6.50;;;;;;;7.24;97.27;97653.92;110464;1247;59673;-70
2022/09/24 06:03:09;;;;;;;9.50;7.20;;;;;;;7.55;96.18;97657.02;110468;1247;59705;-68
2022/09/24 06:05:37;;;;;;;12.10;7.70;;;;;;;7.82;95.57;97654.84;110566;1247;72496;-70
2022/09/24 06:08:05;;;;;;;8.40;6.50;;;;;;;8.03;95.34;97662.23;110557;1246;69526;-68
2022/09/24 06:10:32;;;;;;;9.20;6.40;;;;;;;8.30;94.52;97663.11;110607;1247;69299;-70
2022/09/24 06:13:00;;;;;;;7.30;5.70;;;;;;;8.55;90.71;97663.03;110848;1247;59676;-69
2022/09/24 06:15:28;;;;;;;8.50;7.20;;;;;;;8.88;89.37;97665.33;110627;1247;59685;-69
2022/09/24 06:17:57;;;;;;;7.30;6.00;;;;;;;9.26;88.67;97666.05;110742;1247;71601;-70
2022/09/24 06:20:32;;;;;;;7.20;6.50;;;;;;;9.49;87.12;97662.85;110875;1245;69323;-70
2022/09/24 06:23:08;;;;;;;9.30;6.20;;;;;;;9.78;89.15;97659.91;110786;1247;68605;-68
2022/09/24 06:25:40;;;;;;;10.40;7.30;;;;;;;10.05;82.97;97664.22;110361;1245;59676;-69
2022/09/24 06:28:07;;;;;;;8.50;6.00;;;;;;;10.38;85.59;97659.27;110470;1246;59734;-70
2022/09/24 06:30:40;;;;;;;7.20;5.80;;;;;;;10.52;78.96;97662.70;110416;1247;70828;-69
2022/09/24 06:33:11;;;;;;;7.50;5.80;;;;;;;10.87;78.68;97670.52;110192;1247;70208;-69
2022/09/24 06:35:43;;;;;;;7.40;5.20;;;;;;;10.96;76.16;97668.33;110247;1247;68544;-69
2022/09/24 06:38:14;;;;;;;6.70;5.40;;;;;;;11.34;77.11;97670.33;111060;1246;59732;-70
2022/09/24 06:40:43;;;;;;;8.60;5.80;;;;;;;11.60;74.67;97676.98;110889;1245;59646;-71
2022/09/24 06:43:12;;;;;;;7.00;5.50;;;;;;;11.88;74.68;97679.19;110335;1247;72492;-70
2022/09/24 06:45:41;;;;;;;5.40;4.70;;;;;;;11.98;74.32;97678.07;110353;1247;67573;-68
2022/09/24 06:48:12;;;;;;;6.70;5.30;;;;;;;12.18;71.08;97676.63;110314;1246;68677;-71
2022/09/24 06:50:44;;;;;;;6.30;4.70;;;;;;;12.16;69.45;97674.27;110338;1247;59717;-70
2022/09/24 06:53:12;;;;;;;6.40;4.70;;;;;;;12.62;71.85;97676.77;110456;1247;59688;-69
2022/09/24 06:55:39;;;;;;;4.70;4.00;;;;;;;12.79;69.14;97677.17;110555;1245;70744;-72
2022/09/24 06:58:11;;;;;;;4.50;3.80;;;;;;;13.06;68.94;97681.93;110530;1247;69302;-71
2022/09/24 07:01:01;;;;;;;6.00;4.40;;;;;;;13.44;67.10;97686.09;110207;1247;68622;-71
2022/09/24 07:03:31;;;;;;;6.70;4.40;;;;;;;13.86;66.79;97692.86;110219;1247;59809;-71
2022/09/24 07:06:01;;;;;;;5.30;3.70;;;;;;;14.25;64.77;97691.41;110459;1247;59742;-71
2022/09/24 07:08:29;;;;;;;5.30;4.40;;;;;;;14.55;61.41;97694.48;110470;1247;71436;-71
2022/09/24 07:10:56;;;;;;;6.30;4.80;;;;;;;14.75;62.97;97696.20;110248;1247;69482;-71
2022/09/24 07:13:24;;;;;;;4.60;4.00;;;;;;;14.81;64.03;97698.67;110127;1246;68432;-71
2022/09/24 07:15:51;;;;;;;5.50;4.50;;;;;;;14.84;63.93;97700.48;110207;1247;59659;-72
2022/09/24 07:18:27;;;;;;;5.90;4.20;;;;;;;14.56;60.85;97698.80;110486;1247;59679;-71
2022/09/24 07:20:55;;;;;;;5.10;4.10;;;;;;;14.33;61.77;97700.01;110500;1246;70761;-70
2022/09/24 07:23:23;;;;;;;5.00;4.30;;;;;;;13.94;60.19;97698.85;110141;1247;68837;-71
2022/09/24 07:25:55;;;;;;;4.90;3.60;;;;;;;13.35;61.99;97702.59;110338;1247;69352;-71
2022/09/24 07:28:23;;;;;;;4.60;3.50;;;;;;;13.70;63.25;97703.61;110490;1246;59746;-70
2022/09/24 07:30:58;;;;;;;5.50;4.60;;;;;;;13.89;62.66;97708.58;110261;1247;59659;-69
2022/09/24 07:33:26;;;;;;;5.90;5.00;;;;;;;13.89;62.41;97710.45;110593;1247;71416;-71
2022/09/24 07:35:53;;;;;;;5.30;4.50;;;;;;;14.05;62.65;97713.34;110539;1245;69379;-70
2022/09/24 07:38:21;;;;;;;7.20;4.70;;;;;;;14.08;62.95;97709.93;110676;1246;68744;-71
2022/09/24 07:40:48;;;;;;;6.40;4.80;;;;;;;13.95;60.82;97712.08;110731;1247;59723;-71
2022/09/24 07:43:15;;;;;;;5.90;5.30;;;;;;;13.95;60.89;97716.11;110416;1246;59731;-71
2022/09/24 07:45:44;;;;;;;6.60;5.40;;;;;;;14.19;61.23;97713.42;110477;1245;71504;-70
2022/09/24 07:48:11;;;;;;;6.90;6.00;;;;;;;14.30;61.25;97717.92;110531;1247;69405;-71
2022/09/24 07:50:41;;;;;;;5.10;4.40;;;;;;;14.65;61.81;97716.61;110468;1247;69453;-70
2022/09/24 07:53:14;;;;;;;7.40;6.10;;;;;;;14.84;60.63;97710.83;110611;1245;59667;-70
2022/09/24 07:55:41;;;;;;;8.80;6.00;;;;;;;14.94;59.35;97707.66;110335;1247;59615;-72
2022/09/24 07:58:12;;;;;;;7.40;6.40;;;;;;;14.86;59.21;97705.34;110574;1247;70619;-70
2022/09/24 08:00:40;;;;;;;7.60;6.90;;;;;;;14.94;59.27;97705.55;110357;1245;69295;-70
2022/09/24 08:03:07;;;;;;;6.10;5.50;;;;;;;15.26;58.64;97709.13;110425;1247;69263;-70
2022/09/24 08:05:35;;;;;;;6.00;5.40;;;;;;;15.64;57.56;97711.55;110584;1247;59725;-70
2022/09/24 08:08:02;;;;;;;7.70;6.00;;;;;;;16.15;56.44;97707.02;110810;1247;59688;-70
2022/09/24 08:10:29;;;;;;;6.30;5.70;;;;;;;16.48;55.37;97707.48;110751;1246;71441;-70
2022/09/24 08:13:01;;;;;;;8.50;5.60;;;;;;;16.92;53.85;97707.55;110244;1247;69321;-70
2022/09/24 08:15:28;;;;;;;8.20;6.00;;;;;;;17.31;52.40;97705.24;110446;1247;69625;-71
2022/09/24 08:18:03;;;;;;;7.10;6.40;;;;;;;17.79;51.75;97706.80;110342;1246;60031;-69
2022/09/24 08:20:35;;;;;;;7.40;6.00;;;;;;;17.90;49.54;97706.16;110302;1247;59714;-69
2022/09/24 08:23:04;;;;;;;5.70;5.10;;;;;;;17.78;48.92;97707.07;110242;1247;72115;-68
2022/09/24 08:25:31;;;;;;;;;;;;;;;17.51;49.01;97702.58;110357;1245;69248;-70
2022/09/24 08:28:03;;;;;;;6.30;5.70;;;;;;;18.23;49.20;97705.60;110456;1244;68607;-69
2022/09/24 08:30:33;;;;;;;6.20;5.60;;;;;;;18.74;46.55;97707.15;110280;1247;60073;-69
2022/09/24 08:33:06;;;;;;;6.10;5.50;;;;;;;17.85;48.01;97708.66;109719;1248;59694;-71
2022/09/24 08:35:34;;;;;;;5.50;5.00;;;;;;;18.24;48.13;97706.05;110251;1247;71523;-70
2022/09/24 08:38:02;;;;;;;7.20;4.50;;;;;;;18.36;47.21;97710.00;110387;1246;69977;-70
2022/09/24 08:40:35;;;;;;;5.80;5.20;;;;;;;18.22;47.00;97705.13;110333;1245;68614;-70
2022/09/24 08:43:17;;;;;;;5.80;5.20;;;;;;;18.71;46.13;97705.89;110292;1246;59769;-71
2022/09/24 08:48:48;;;;;;;7.40;5.10;;;;;;;17.97;47.39;97707.13;110571;1247;71304;-69
2022/09/24 08:51:18;;;;;;;5.10;4.40;;;;;;;18.04;46.47;97699.33;110473;1247;69673;-71
2022/09/24 08:54:06;;;;;;;4.80;4.30;;;;;;;18.49;46.35;97706.52;110430;1245;70029;-70
2022/09/24 08:56:37;;;;;;;4.40;4.00;;;;;;;19.00;44.46;97702.58;110309;1246;59741;-69
2022/09/24 08:59:13;;;;;;;3.70;3.10;;;;;;;19.11;44.00;97699.58;110065;1247;59675;-67
2022/09/24 09:02:06;;;;;;;4.90;4.40;;;;;;;19.54;43.81;97708.09;110161;1247;71768;-69
2022/09/24 09:04:57;;;;;;;3.80;3.20;;;;;;;19.79;42.70;97705.70;110051;1247;67752;-71
2022/09/24 09:07:46;;;;;;;5.30;4.00;;;;;;;20.16;41.56;97704.42;110188;1247;69929;-70
2022/09/24 09:10:15;;;;;;;;;;;;;;;19.22;42.47;97698.38;110100;1246;59745;-70
2022/09/24 09:12:52;;;;;;;4.20;3.60;;;;;;;19.37;42.28;97696.88;110186;1248;59683;-70
2022/09/24 09:15:25;;;;;;;5.20;3.60;;;;;;;20.16;41.16;97700.34;110067;1247;72054;-71
2022/09/24 09:18:00;;;;;;;4.30;3.70;;;;;;;20.62;40.10;97693.20;110204;1246;69353;-71
2022/09/24 09:20:32;;;;;;;4.70;3.80;;;;;;;19.57;40.31;97697.26;110123;1247;69175;-69
2022/09/24 09:23:12;;;;;;;4.00;3.60;;;;;;;17.86;44.15;97701.41;110231;1247;59667;-71
2022/09/24 09:25:46;;;;;;;4.10;3.70;;;;;;;17.34;45.19;97699.14;110653;1247;60186;-69
2022/09/24 09:28:15;;;;;;;4.70;3.40;;;;;;;16.87;46.17;97696.39;110488;1247;71824;-69
2022/09/24 09:30:51;;;;;;;;;;;;;;;16.57;46.46;97692.44;110438;1247;69364;-69
2022/09/24 09:33:34;;;;;;;4.80;4.30;;;;;;;16.78;46.57;97688.05;110344;1246;68532;-69
2022/09/24 09:36:32;;;;;;;4.20;3.60;;;;;;;16.58;47.68;97685.52;110339;1246;60101;-69
2022/09/24 09:39:04;;;;;;;5.00;3.70;;;;;;;16.73;47.22;97682.84;110405;1246;59617;-69
2022/09/24 09:41:52;;;;;;;5.90;4.00;;;;;;;16.66;48.19;97683.70;110312;1247;72218;-68
2022/09/24 09:44:25;;;;;;;5.00;4.10;;;;;;;16.45;46.29;97687.38;110082;1247;69549;-69
2022/09/24 09:47:05;;;;;;;5.00;4.40;;;;;;;16.79;46.84;97690.38;110071;1247;68763;-70
2022/09/24 09:49:37;;;;;;;5.20;4.70;;;;;;;16.69;46.38;97695.92;110489;1247;59716;-69
2022/09/24 09:52:13;;;;;;;4.90;4.40;;;;;;;16.23;46.94;97698.20;110430;1247;59659;-69
2022/09/24 09:54:42;;;;;;;5.50;4.30;;;;;;;15.70;48.37;97699.63;110106;1247;70591;-70
2022/09/24 09:57:16;;;;;;;5.40;4.30;;;;;;;15.19;50.45;97694.06;110303;1246;68918;-69
2022/09/24 09:59:47;;;;;;;5.00;3.80;;;;;;;14.68;50.54;97690.41;110253;1247;69610;-69
2022/09/24 10:02:36;;;;;;;6.20;3.70;;;;;;;14.39;51.32;97692.52;110260;1247;59765;-69
2022/09/24 10:05:05;;;;;;;5.40;4.20;;;;;;;14.47;51.61;97687.96;110283;1246;59714;-70
2022/09/24 10:07:43;;;;;;;5.50;4.60;;;;;;;14.32;51.95;97689.58;110272;1244;71440;-69
2022/09/24 10:10:23;;;;;;;5.70;4.40;;;;;;;14.08;51.33;97685.59;110289;1245;69598;-69
2022/09/24 10:13:12;;;;;;;5.10;4.00;;;;;;;13.56;53.22;97690.73;110089;1247;68751;-68
2022/09/24 10:15:52;;;;;;;6.30;4.30;;;;;;;13.40;54.41;97690.13;110060;1247;59736;-68
2022/09/24 10:18:38;;;;;;;5.30;4.50;;;;;;;13.62;54.41;97693.06;110226;1247;59605;-68
2022/09/24 10:21:10;;;;;;;5.20;3.50;;;;;;;13.78;54.63;97694.42;110336;1247;71873;-70
2022/09/24 10:23:43;;;;;;;4.90;4.30;;;;;;;13.91;53.59;97696.45;110311;1245;68475;-68
2022/09/24 10:26:10;;;;;;;4.60;3.50;;;;;;;14.17;52.60;97689.45;110224;1245;69263;-67
2022/09/24 10:31:38;;;;;;;6.30;5.10;;;;;;;14.75;52.45;97688.75;110197;1244;59671;-71
2022/09/24 10:34:23;;;;;;;5.80;5.20;;;;;;;14.96;51.06;97688.91;110311;1244;71513;-69
2022/09/24 10:37:03;;;;;;;7.40;5.30;;;;;;;14.93;50.55;97687.80;110247;1245;68841;-69
2022/09/24 10:39:37;;;;;;;6.80;5.30;;;;;;;15.31;50.12;97691.10;110216;1247;69322;-68
2022/09/24 10:42:06;;;;;;;9.80;8.60;;;;;;;15.18;49.64;97685.80;110075;1247;59712;-69
2022/09/24 10:44:37;;;;;;;6.20;5.50;;;;;;;15.56;50.22;97687.86;110254;1245;59744;-70
2022/09/24 10:47:21;;;;;;;6.60;5.90;;;;;;;16.01;49.15;97686.68;110234;1245;71671;-70
2022/09/24 10:50:20;;;;;;;6.30;4.60;;;;;;;16.58;47.63;97681.14;110226;1245;69381;-67
2022/09/24 10:53:07;;;;;;;6.30;5.60;;;;;;;16.92;46.06;97681.76;110168;1248;68634;-68
2022/09/24 10:55:56;;;;;;;5.20;4.30;;;;;;;16.66;46.48;97679.08;110575;1247;59720;-69
2022/09/24 10:58:54;;;;;;;5.20;4.60;;;;;;;17.04;46.06;97678.95;110219;1247;59670;-68
2022/09/24 11:01:21;;;;;;;5.50;4.90;;;;;;;17.41;45.82;97677.44;110260;1247;70463;-69
2022/09/24 11:03:52;;;;;;;5.90;5.30;;;;;;;17.20;45.61;97677.41;110338;1245;69356;-69
2022/09/24 11:06:34;;;;;;;5.70;4.80;;;;;;;17.27;46.04;97684.10;110200;1245;69836;-69
2022/09/24 11:09:29;;;;;;;5.00;4.30;;;;;;;16.96;46.01;97680.37;110530;1245;60056;-70
2022/09/24 11:12:18;;;;;;;6.70;5.30;;;;;;;16.79;45.89;97680.96;110424;1245;59634;-69
2022/09/24 11:15:03;;;;;;;4.70;3.70;;;;;;;16.16;46.88;97683.58;110295;1245;72069;-70
2022/09/24 11:18:03;;;;;;;5.50;4.40;;;;;;;15.93;48.05;97684.02;110346;1244;68843;-69
2022/09/24 11:20:38;;;;;;;4.20;3.50;;;;;;;16.12;47.93;97683.20;110093;1244;70032;-69
2022/09/24 11:23:06;;;;;;;5.80;5.10;;;;;;;16.38;47.33;97676.77;110340;1245;59671;-68
2022/09/24 11:25:53;;;;;;;5.80;5.10;;;;;;;16.67;47.21;97672.53;110201;1245;59691;-69
2022/09/24 11:28:20;;;;;;;6.40;4.70;;;;;;;17.18;45.98;97665.73;110255;1245;71406;-69
2022/09/24 11:31:18;;;;;;;5.40;4.70;;;;;;;17.20;43.60;97664.01;110339;1245;69633;-68
2022/09/24 11:33:55;;;;;;;5.10;4.20;;;;;;;17.37;43.23;97660.11;110223;1245;69363;-68
2022/09/24 11:36:49;;;;;;;5.10;4.10;;;;;;;17.37;42.51;97660.64;110195;1245;59849;-69
2022/09/24 11:39:26;;;;;;;4.40;3.90;;;;;;;17.31;42.94;97657.17;110447;1245;60109;-70
2022/09/24 11:42:15;;;;;;;4.30;3.70;;;;;;;17.46;41.93;97653.04;110315;1245;71500;-69
2022/09/24 11:45:10;;;;;;;4.50;4.10;;;;;;;17.48;41.83;97650.73;110394;1245;69449;-69
2022/09/24 11:48:15;;;;;;;4.40;3.90;;;;;;;17.71;41.17;97648.45;110315;1245;69401;-69
2022/09/24 11:51:20;;;;;;;4.90;3.60;;;;;;;18.29;41.29;97647.29;109775;1252;59683;-69
2022/09/24 11:54:11;;;;;;;3.40;2.60;;;;;;;18.65;40.45;97648.77;110279;1245;59676;-68
2022/09/24 11:56:48;;;;;;;4.00;3.60;;;;;;;18.46;40.11;97655.45;110356;1244;71559;-69
2022/09/24 11:59:41;;;;;;;3.90;3.30;;;;;;;17.99;40.93;97653.66;110568;1245;69898;-68
2022/09/24 12:02:19;;;;;;;5.10;3.50;;;;;;;17.43;41.65;97656.38;111235;1245;71406;-68
2022/09/24 12:05:14;;;;;;;4.40;2.90;;;;;;;17.15;43.25;97645.46;111166;1244;59751;-69